createdAt,value
2023-05-05T00:00:14.073Z,5.47
2023-05-05T00:02:43.391Z,6.50
2023-05-05T00:05:10.448Z,6.85
2023-05-05T00:07:37.333Z,10.52
2023-05-05T00:10:05.814Z,6.88
2023-05-05T00:12:33.616Z,7.15
2023-05-05T00:15:02.638Z,8.93
2023-05-05T00:17:30.850Z,7.63
2023-05-05T00:19:57.434Z,7.28
2023-05-05T00:22:24.075Z,9.18
2023-05-05T00:24:55.568Z,8.40
2023-05-05T00:27:23.320Z,11.23
2023-05-05T00:29:50.836Z,7.28
2023-05-05T00:32:19.546Z,7.72
2023-05-05T00:34:46.593Z,8.30
2023-05-05T00:37:16.837Z,6.70
2023-05-05T00:42:11.575Z,8.10
2023-05-05T00:44:40.663Z,7.57
2023-05-05T00:47:16.786Z,7.25
2023-05-05T00:49:43.666Z,6.32
2023-05-05T00:52:11.703Z,8.48
2023-05-05T00:54:44.341Z,6.32
2023-05-05T00:57:11.562Z,6.45
2023-05-05T00:59:39.149Z,6.68
2023-05-05T01:02:06.321Z,5.72
2023-05-05T01:04:34.254Z,6.80
2023-05-05T01:07:52.621Z,7.05
2023-05-05T01:10:43.029Z,8.88
2023-05-05T01:13:32.849Z,6.45
2023-05-05T01:16:12.064Z,6.43
2023-05-05T01:18:52.806Z,6.88
2023-05-05T01:21:47.693Z,7.35
2023-05-05T01:24:33.111Z,6.20
2023-05-05T01:27:27.304Z,5.13
2023-05-05T01:30:32.472Z,5.80
2023-05-05T01:33:05.568Z,5.90
2023-05-05T01:35:45.879Z,5.57
2023-05-05T01:38:19.197Z,5.88
2023-05-05T01:40:52.132Z,6.20
2023-05-05T01:43:21.720Z,6.03
2023-05-05T01:45:50.664Z,5.35
2023-05-05T01:48:19.507Z,6.47
2023-05-05T01:50:48.171Z,5.38
2023-05-05T01:53:18.233Z,7.88
2023-05-05T01:55:47.179Z,8.98
2023-05-05T01:58:16.529Z,7.22
2023-05-05T02:00:44.250Z,5.88
2023-05-05T02:03:16.274Z,4.93
2023-05-05T02:05:44.745Z,6.70
2023-05-05T02:08:12.226Z,5.85
2023-05-05T02:10:45.730Z,6.72
2023-05-05T02:13:15.603Z,6.38
2023-05-05T02:15:46.405Z,6.55
2023-05-05T02:20:55.347Z,5.93
2023-05-05T02:23:22.212Z,7.82
2023-05-05T02:25:57.994Z,7.07
2023-05-05T02:28:41.906Z,7.93
2023-05-05T02:31:11.125Z,9.10
2023-05-05T02:33:39.342Z,6.63
2023-05-05T02:36:26.280Z,6.43
2023-05-05T02:38:58.332Z,8.45
2023-05-05T02:41:30.804Z,10.63
2023-05-05T02:44:00.940Z,7.35
2023-05-05T02:46:33.025Z,9.80
2023-05-05T02:49:04.447Z,7.28
2023-05-05T02:51:33.721Z,8.05
2023-05-05T02:54:01.805Z,6.93
2023-05-05T02:56:42.346Z,6.72
2023-05-05T02:59:26.682Z,9.98
2023-05-05T03:02:20.066Z,7.78
2023-05-05T03:05:21.757Z,10.57
2023-05-05T03:08:09.809Z,8.32
2023-05-05T03:10:44.244Z,9.32
2023-05-05T03:13:14.421Z,9.45
2023-05-05T03:15:46.802Z,9.82
2023-05-05T03:18:18.101Z,7.70
2023-05-05T03:20:46.485Z,8.35
2023-05-05T03:23:20.409Z,7.82
2023-05-05T03:25:48.848Z,9.52
2023-05-05T03:28:18.423Z,6.70
2023-05-05T03:30:48.980Z,9.10
2023-05-05T03:33:19.828Z,10.35
2023-05-05T03:35:50.279Z,6.53
2023-05-05T03:38:17.064Z,7.35
2023-05-05T03:40:44.846Z,7.35
2023-05-05T03:43:11.829Z,7.55
2023-05-05T03:45:46.115Z,8.02
2023-05-05T03:48:13.650Z,7.78
2023-05-05T03:50:40.669Z,11.60
2023-05-05T03:53:07.095Z,8.82
2023-05-05T03:55:37.969Z,10.00
2023-05-05T03:58:04.455Z,10.43
2023-05-05T04:00:31.413Z,8.52
2023-05-05T04:02:58.085Z,6.75
2023-05-05T04:05:25.733Z,8.85
2023-05-05T04:07:52.874Z,7.57
2023-05-05T04:10:20.644Z,10.20
2023-05-05T04:12:47.632Z,7.70
2023-05-05T04:15:14.378Z,11.15
2023-05-05T04:17:41.126Z,11.93
2023-05-05T04:20:12.514Z,9.10
2023-05-05T04:22:40.890Z,11.05
2023-05-05T04:25:07.795Z,7.22
2023-05-05T04:27:40.286Z,8.50
2023-05-05T04:30:10.257Z,10.30
2023-05-05T04:32:41.992Z,8.43
2023-05-05T04:35:11.971Z,8.35
2023-05-05T04:37:40.226Z,10.82
2023-05-05T04:40:09.845Z,7.70
2023-05-05T04:42:39.560Z,10.07
2023-05-05T04:45:09.923Z,10.40
2023-05-05T04:50:03.997Z,9.52
2023-05-05T04:52:38.286Z,8.75
2023-05-05T04:55:12.594Z,10.15
2023-05-05T04:57:41.981Z,11.52
2023-05-05T05:00:12.278Z,9.15
2023-05-05T05:02:39.486Z,11.00
2023-05-05T05:05:08.066Z,11.27
2023-05-05T05:07:42.495Z,12.82
2023-05-05T05:10:20.593Z,13.45
2023-05-05T05:12:57.785Z,13.00
2023-05-05T05:15:30.338Z,13.60
2023-05-05T05:17:57.657Z,14.63
2023-05-05T05:20:25.816Z,10.20
2023-05-05T05:22:52.702Z,13.10
2023-05-05T05:25:21.174Z,10.52
2023-05-05T05:30:39.010Z,15.00
2023-05-05T05:33:07.735Z,9.98
2023-05-05T05:35:35.167Z,10.82
2023-05-05T05:38:05.076Z,13.68
2023-05-05T05:40:49.880Z,10.15
2023-05-05T05:43:18.597Z,11.25
2023-05-05T05:45:48.307Z,12.23
2023-05-05T05:51:17.285Z,8.18
2023-05-05T05:53:49.913Z,12.60
2023-05-05T05:59:01.916Z,13.95
2023-05-05T06:01:33.846Z,11.13
2023-05-05T06:04:02.479Z,10.05
2023-05-05T06:06:29.441Z,16.58
2023-05-05T06:09:05.158Z,17.00
2023-05-05T06:11:33.272Z,19.65
2023-05-05T06:14:00.547Z,21.30
2023-05-05T06:16:27.556Z,14.73
2023-05-05T06:18:57.579Z,15.07
2023-05-05T06:21:37.961Z,14.88
2023-05-05T06:24:07.193Z,18.63
2023-05-05T06:26:34.184Z,15.52
2023-05-05T06:29:01.579Z,15.80
2023-05-05T06:31:28.745Z,15.77
2023-05-05T06:33:58.453Z,14.43
2023-05-05T06:36:29.824Z,17.73
2023-05-05T06:38:59.219Z,15.30
2023-05-05T06:41:28.084Z,14.63
2023-05-05T06:43:56.301Z,14.10
2023-05-05T06:46:23.542Z,11.63
2023-05-05T06:48:52.079Z,14.95
2023-05-05T06:51:26.598Z,13.80
2023-05-05T06:53:55.499Z,14.73
2023-05-05T06:56:28.776Z,13.70
2023-05-05T06:59:16.646Z,11.07
2023-05-05T07:04:42.612Z,13.13
2023-05-05T07:07:10.317Z,10.63
2023-05-05T07:09:48.308Z,13.18
2023-05-05T07:12:18.832Z,11.73
2023-05-05T07:14:52.806Z,13.75
2023-05-05T07:17:24.146Z,10.10
2023-05-05T07:25:33.599Z,12.15
2023-05-05T07:28:30.358Z,10.40
2023-05-05T07:31:02.518Z,13.18
2023-05-05T07:33:31.191Z,16.77
2023-05-05T07:38:58.951Z,13.23
2023-05-05T07:44:18.522Z,9.70
2023-05-05T07:46:48.081Z,10.95
2023-05-05T07:49:20.019Z,12.77
2023-05-05T07:51:56.659Z,12.18
2023-05-05T07:57:26.166Z,11.52
2023-05-05T07:59:53.486Z,11.52
2023-05-05T08:02:26.668Z,9.40
2023-05-05T08:04:58.076Z,9.63
2023-05-05T08:07:29.377Z,7.88
2023-05-05T08:10:07.841Z,7.97
2023-05-05T08:12:40.634Z,9.43
2023-05-05T08:15:14.221Z,11.93
2023-05-05T08:17:51.834Z,8.65
2023-05-05T08:23:13.779Z,7.38
2023-05-05T08:25:47.782Z,9.02
2023-05-05T08:28:17.003Z,6.85
2023-05-05T08:31:10.077Z,7.70
2023-05-05T08:39:17.370Z,7.47
2023-05-05T08:41:51.122Z,6.80
2023-05-05T08:44:53.775Z,7.70
2023-05-05T08:47:39.048Z,9.85
2023-05-05T08:50:18.818Z,6.57
2023-05-05T08:52:56.357Z,6.60
2023-05-05T08:55:33.141Z,7.70
2023-05-05T08:58:08.600Z,7.63
2023-05-05T09:00:37.745Z,7.93
2023-05-05T09:03:15.028Z,9.80
2023-05-05T09:05:47.713Z,8.65
2023-05-05T09:08:19.895Z,6.25
2023-05-05T09:10:58.755Z,7.57
2023-05-05T09:13:27.191Z,8.50
2023-05-05T09:16:06.534Z,8.45
2023-05-05T09:18:42.598Z,7.25
2023-05-05T09:21:36.345Z,9.38
2023-05-05T09:24:24.145Z,8.57
2023-05-05T09:26:55.697Z,7.88
2023-05-05T09:29:27.734Z,6.15
2023-05-05T09:32:09.958Z,8.43
2023-05-05T09:34:40.643Z,7.65
2023-05-05T09:40:36.404Z,9.50
2023-05-05T09:43:11.616Z,7.47
2023-05-05T09:45:43.757Z,6.32
2023-05-05T09:48:28.623Z,7.10
2023-05-05T09:50:57.841Z,10.23
2023-05-05T09:56:11.190Z,9.80
2023-05-05T09:58:38.512Z,6.35
2023-05-05T10:01:05.437Z,6.35
2023-05-05T10:03:35.293Z,4.97
2023-05-05T10:06:05.425Z,5.23
2023-05-05T10:08:34.762Z,6.70
2023-05-05T10:11:07.489Z,6.70
2023-05-05T10:13:51.952Z,5.53
2023-05-05T10:16:30.813Z,7.78
2023-05-05T10:19:05.260Z,9.57
2023-05-05T10:24:46.253Z,4.55
2023-05-05T10:27:31.089Z,4.38
2023-05-05T10:30:15.557Z,4.38
2023-05-05T10:33:18.255Z,3.78
2023-05-05T10:36:00.377Z,5.43
2023-05-05T10:38:45.218Z,4.53
2023-05-05T10:41:16.466Z,3.78
2023-05-05T10:43:53.509Z,2.88
2023-05-05T10:46:29.156Z,4.10
2023-05-05T10:49:39.978Z,5.78
2023-05-05T10:52:23.501Z,2.22
2023-05-05T10:55:16.882Z,6.15
2023-05-05T11:03:44.930Z,2.55
2023-05-05T11:09:00.258Z,2.72
2023-05-05T11:14:26.699Z,1.58
2023-05-05T11:17:09.911Z,4.03
2023-05-05T11:19:57.060Z,2.25
2023-05-05T11:22:24.452Z,3.63
2023-05-05T11:24:53.541Z,3.13
2023-05-05T11:27:23.589Z,2.47
2023-05-05T11:36:37.567Z,1.50
2023-05-05T11:39:24.664Z,1.40
2023-05-05T11:45:28.392Z,1.48
2023-05-05T11:48:29.561Z,2.55
2023-05-05T12:00:13.074Z,1.13
2023-05-05T12:02:47.129Z,3.17
2023-05-05T12:05:28.443Z,3.60
2023-05-05T12:08:02.339Z,1.20
2023-05-05T12:10:29.591Z,1.45
2023-05-05T12:12:58.692Z,1.88
2023-05-05T12:15:34.535Z,0.85
2023-05-05T12:18:22.461Z,1.60
2023-05-05T12:20:52.398Z,3.35
2023-05-05T12:23:23.962Z,7.82
2023-05-05T12:25:51.727Z,0.88
2023-05-05T12:28:18.520Z,1.23
2023-05-05T12:33:44.306Z,3.58
2023-05-05T12:36:16.992Z,0.95
2023-05-05T12:38:46.358Z,1.30
2023-05-05T12:41:24.826Z,6.80
2023-05-05T12:43:56.766Z,1.38
2023-05-05T12:46:26.758Z,1.73
2023-05-05T12:49:08.238Z,1.85
2023-05-05T12:51:43.804Z,1.42
2023-05-05T12:54:24.909Z,2.13
2023-05-05T12:56:59.568Z,2.20
2023-05-05T12:59:35.350Z,1.63
2023-05-05T13:02:15.397Z,3.30
2023-05-05T13:04:56.537Z,5.22
2023-05-05T13:14:47.213Z,1.85
2023-05-05T13:17:29.683Z,3.30
2023-05-05T13:22:53.122Z,1.30
2023-05-05T13:25:23.160Z,2.92
2023-05-05T13:33:19.982Z,1.83
2023-05-05T13:38:45.806Z,0.80
2023-05-05T13:41:16.859Z,2.47
2023-05-05T13:43:48.313Z,1.48
2023-05-05T13:46:19.965Z,0.68
2023-05-05T13:48:56.040Z,2.10
2023-05-05T13:51:49.973Z,1.63
2023-05-05T14:10:22.679Z,1.13
2023-05-05T14:12:55.030Z,1.52
2023-05-05T14:21:09.090Z,0.82
2023-05-05T14:26:30.694Z,2.25
2023-05-05T14:29:04.552Z,3.00
2023-05-05T14:34:22.507Z,1.45
2023-05-05T14:36:50.075Z,3.25
2023-05-05T14:39:20.746Z,2.50
2023-05-05T14:41:51.866Z,2.13
2023-05-05T14:44:22.502Z,4.15
2023-05-05T14:49:44.296Z,1.38
2023-05-05T14:52:11.088Z,1.38
2023-05-05T14:54:40.373Z,3.35
2023-05-05T14:57:15.645Z,1.00
2023-05-05T14:59:49.731Z,1.23
2023-05-05T15:02:16.928Z,2.50
2023-05-05T15:04:44.170Z,2.45
2023-05-05T15:07:13.610Z,3.47
2023-05-05T15:09:44.816Z,3.03
2023-05-05T15:12:29.674Z,2.50
2023-05-05T15:14:57.071Z,1.67
2023-05-05T15:17:25.327Z,2.97
2023-05-05T15:19:52.120Z,3.13
2023-05-05T15:22:19.663Z,2.08
2023-05-05T15:24:46.890Z,1.35
2023-05-05T15:27:19.586Z,4.55
2023-05-05T15:29:50.793Z,25.95
2023-05-05T15:32:17.937Z,4.40
2023-05-05T15:34:50.183Z,3.80
2023-05-05T15:37:19.920Z,5.30
2023-05-05T15:39:47.139Z,1.42
2023-05-05T15:42:17.918Z,1.80
2023-05-05T15:44:45.242Z,1.20
2023-05-05T15:47:18.426Z,1.65
2023-05-05T15:49:52.218Z,1.60
2023-05-05T15:52:22.443Z,1.83
2023-05-05T15:54:49.459Z,1.95
2023-05-05T16:02:43.043Z,2.78
2023-05-05T16:05:10.887Z,1.30
2023-05-05T16:08:10.823Z,1.60
2023-05-05T16:10:38.196Z,3.80
2023-05-05T16:13:08.524Z,1.52
2023-05-05T16:15:41.700Z,9.93
2023-05-05T16:18:20.542Z,2.33
2023-05-05T16:20:47.560Z,2.70
2023-05-05T16:23:18.354Z,3.85
2023-05-05T16:30:46.682Z,2.50
2023-05-05T16:33:14.358Z,1.63
2023-05-05T16:36:10.784Z,3.88
2023-05-05T16:39:00.195Z,2.13
2023-05-05T16:41:47.182Z,4.32
2023-05-05T16:44:14.872Z,2.05
2023-05-05T16:46:49.759Z,1.98
2023-05-05T16:49:34.326Z,2.08
2023-05-05T16:52:02.289Z,1.92
2023-05-05T16:54:36.936Z,3.53
2023-05-05T16:57:06.079Z,6.40
2023-05-05T16:59:35.262Z,3.05
2023-05-05T17:02:06.047Z,4.40
2023-05-05T17:04:36.316Z,5.10
2023-05-05T17:07:06.882Z,2.92
2023-05-05T17:13:02.132Z,2.45
2023-05-05T17:15:33.470Z,4.03
2023-05-05T17:20:50.813Z,2.55
2023-05-05T17:31:58.212Z,6.00
2023-05-05T17:34:46.135Z,5.32
2023-05-05T17:40:06.060Z,2.40
2023-05-05T17:45:23.185Z,4.78
2023-05-05T17:48:07.338Z,3.80
2023-05-05T17:50:43.505Z,4.35
2023-05-05T17:53:14.414Z,4.30
2023-05-05T17:55:49.657Z,4.53
2023-05-05T17:58:32.460Z,5.00
2023-05-05T18:01:26.316Z,3.67
2023-05-05T18:03:57.083Z,3.50
2023-05-05T18:06:30.423Z,53.80
2023-05-05T18:09:00.260Z,17.63
2023-05-05T18:11:55.285Z,6.55
2023-05-05T18:14:26.060Z,6.55
2023-05-05T18:17:06.944Z,3.25
2023-05-05T18:19:35.015Z,2.58
2023-05-05T18:22:16.387Z,4.47
2023-05-05T18:24:46.773Z,5.78
2023-05-05T18:27:14.461Z,7.53
2023-05-05T18:29:43.890Z,7.93
2023-05-05T18:38:23.209Z,3.60
2023-05-05T18:40:53.361Z,4.28
2023-05-05T18:43:21.119Z,4.43
2023-05-05T18:58:37.658Z,4.95
2023-05-05T19:01:15.265Z,4.97
2023-05-05T19:10:27.356Z,4.20
2023-05-05T19:12:59.930Z,4.55
2023-05-05T19:15:34.194Z,5.78
2023-05-05T19:18:04.665Z,7.28
2023-05-05T19:23:23.567Z,5.72
2023-05-05T19:25:56.582Z,5.18
2023-05-05T19:31:11.828Z,3.10
2023-05-05T19:33:47.307Z,4.07
2023-05-05T19:36:23.153Z,4.85
2023-05-05T19:38:55.489Z,5.25
2023-05-05T19:41:31.506Z,5.18
2023-05-05T19:44:02.004Z,7.30
2023-05-05T19:48:58.443Z,7.63
2023-05-05T19:51:30.314Z,6.78
2023-05-05T19:53:57.440Z,5.90
2023-05-05T19:59:18.640Z,15.27
2023-05-05T20:01:49.992Z,17.92
2023-05-05T20:04:24.047Z,7.35
2023-05-05T20:07:00.260Z,5.82
2023-05-05T20:09:35.523Z,7.05
2023-05-05T20:12:06.172Z,7.05
2023-05-05T20:14:33.211Z,4.70
2023-05-05T20:17:04.239Z,2.25
2023-05-05T20:19:32.305Z,4.40
2023-05-05T20:22:07.867Z,5.68
2023-05-05T20:27:45.929Z,6.28
2023-05-05T20:30:15.371Z,5.35
2023-05-05T20:32:44.858Z,6.30
2023-05-05T20:35:13.092Z,6.78
2023-05-05T20:37:43.758Z,8.25
2023-05-05T20:42:54.693Z,5.43
2023-05-05T20:45:29.142Z,3.60
2023-05-05T20:48:05.346Z,5.15
2023-05-05T20:50:33.873Z,4.35
2023-05-05T20:53:03.336Z,6.95
2023-05-05T20:55:32.406Z,5.35
2023-05-05T20:58:11.249Z,3.30
2023-05-05T21:00:41.531Z,3.72
2023-05-05T21:03:12.734Z,4.82
2023-05-05T21:05:43.605Z,6.13
2023-05-05T21:08:21.750Z,5.43
2023-05-05T21:10:51.192Z,5.30
2023-05-05T21:13:29.482Z,6.35
2023-05-05T21:15:56.964Z,9.13
2023-05-05T21:18:34.598Z,8.10
2023-05-05T21:21:08.645Z,5.97
2023-05-05T21:23:38.403Z,4.68
2023-05-05T21:26:09.071Z,3.20
2023-05-05T21:28:39.105Z,3.72
2023-05-05T21:31:21.383Z,3.63
2023-05-05T21:36:34.489Z,2.90
2023-05-05T21:41:49.829Z,2.65
2023-05-05T21:44:20.681Z,4.53
2023-05-05T21:46:51.020Z,3.15
2023-05-05T21:52:02.470Z,4.47
2023-05-05T21:54:30.509Z,2.50
2023-05-05T21:56:58.482Z,4.10
2023-05-05T21:59:25.859Z,2.92
2023-05-05T22:01:58.644Z,3.42
2023-05-05T22:04:28.974Z,3.42
2023-05-05T22:06:56.607Z,6.45
2023-05-05T22:09:23.783Z,3.88
2023-05-05T22:14:44.403Z,3.55
2023-05-05T22:20:08.545Z,4.57
2023-05-05T22:22:36.134Z,4.38
2023-05-05T22:25:18.720Z,3.13
2023-05-05T22:27:50.517Z,5.88
2023-05-05T22:30:18.957Z,5.32
2023-05-05T22:32:49.981Z,2.10
2023-05-05T22:35:19.166Z,4.85
2023-05-05T22:37:49.016Z,2.88
2023-05-05T22:40:19.226Z,3.58
2023-05-05T22:42:54.894Z,3.67
2023-05-05T22:45:23.391Z,3.15
2023-05-05T22:50:34.407Z,4.60
2023-05-05T22:53:11.602Z,4.15
2023-05-05T22:55:43.186Z,2.70
2023-05-05T22:58:18.194Z,3.22
2023-05-05T23:00:47.357Z,3.58
2023-05-05T23:03:18.852Z,4.35
2023-05-05T23:05:48.037Z,3.70
2023-05-05T23:08:26.941Z,3.67
2023-05-05T23:10:54.567Z,3.75
2023-05-05T23:16:07.467Z,4.15
2023-05-05T23:18:36.429Z,2.20
2023-05-05T23:21:11.291Z,2.53
2023-05-05T23:23:43.388Z,2.67
2023-05-05T23:26:14.323Z,1.95
2023-05-05T23:28:46.483Z,2.10
2023-05-05T23:31:14.257Z,2.17
2023-05-05T23:36:37.220Z,2.15
2023-05-05T23:39:07.859Z,2.05
2023-05-05T23:41:35.740Z,2.67
2023-05-05T23:44:07.096Z,2.13
2023-05-05T23:46:34.467Z,4.50
2023-05-05T23:49:07.651Z,3.38
2023-05-05T23:51:37.186Z,2.63
2023-05-05T23:54:06.227Z,3.90
2023-05-05T23:56:35.943Z,3.70
2023-05-05T23:59:03.699Z,6.78
